Time;durP1;ratioP1;P1;durP2;ratioP2;P2;SDS_P1;SDS_P2;PMS_P1;PMS_P2;Temp;Humidity;BMP_temperature;BMP_pressure;BME280_temperature;BME280_humidity;BME280_pressure;Samples;Min_cycle;Max_cycle;Signal;HPM_P1;HPM_P2
2022/04/03 00:01:26;;;;;;;40.53;17.70;;;-2.70;99.90;;;;;;5017915;28;20036;-84
2022/04/03 00:03:52;;;;;;;36.60;17.25;;;-2.80;99.90;;;;;;5034454;28;20037;-84
2022/04/03 00:06:19;;;;;;;47.17;21.38;;;-2.90;99.90;;;;;;5034230;28;20031;-84
2022/04/03 00:08:44;;;;;;;47.90;21.85;;;-2.90;99.90;;;;;;5033592;28;20483;-84
2022/04/03 00:11:10;;;;;;;46.30;19.02;;;-2.90;99.90;;;;;;5033288;28;20033;-84
2022/04/03 00:13:37;;;;;;;36.38;18.58;;;-2.90;99.90;;;;;;5017337;28;20516;-84
2022/04/03 00:16:04;;;;;;;43.40;19.80;;;-3.00;99.90;;;;;;5017611;28;20599;-84
2022/04/03 00:18:30;;;;;;;44.20;21.58;;;-3.00;99.90;;;;;;5017270;28;20060;-84
2022/04/03 00:20:55;;;;;;;51.60;23.20;;;-3.00;99.90;;;;;;5017524;28;20068;-84
2022/04/03 00:23:23;;;;;;;51.40;24.85;;;-3.10;99.90;;;;;;5017574;28;20094;-84
2022/04/03 00:25:52;;;;;;;54.85;23.50;;;-3.10;99.90;;;;;;5017357;28;20431;-84
2022/04/03 00:28:19;;;;;;;45.90;21.10;;;-3.10;99.90;;;;;;5033952;28;20033;-84
2022/04/03 00:30:45;;;;;;;53.17;22.52;;;-3.20;99.90;;;;;;5034212;28;20036;-84
2022/04/03 00:33:11;;;;;;;44.97;21.25;;;-3.30;99.90;;;;;;5018134;28;20033;-84
2022/04/03 00:35:37;;;;;;;41.42;18.73;;;-3.30;99.90;;;;;;5018090;28;20061;-84
2022/04/03 00:38:03;;;;;;;43.92;19.10;;;-3.30;99.90;;;;;;5017913;28;20063;-84
2022/04/03 00:40:29;;;;;;;48.25;21.02;;;-3.30;99.90;;;;;;5017775;28;20372;-84
2022/04/03 00:42:55;;;;;;;42.80;20.50;;;-3.30;99.90;;;;;;5017770;28;20060;-84
2022/04/03 00:45:21;;;;;;;45.65;19.02;;;-3.20;99.90;;;;;;5034630;28;20059;-84
2022/04/03 00:47:53;;;;;;;46.75;19.00;;;-3.30;99.90;;;;;;5034432;28;20033;-84
2022/04/03 00:50:20;;;;;;;45.17;19.65;;;-3.30;99.90;;;;;;5034292;28;20036;-84
2022/04/03 00:52:46;;;;;;;50.60;20.42;;;-3.30;99.90;;;;;;5017874;28;20027;-84
2022/04/03 00:55:12;;;;;;;46.70;20.70;;;-3.20;99.90;;;;;;5034233;28;20036;-85
2022/04/03 00:57:40;;;;;;;51.85;20.55;;;-3.20;99.90;;;;;;5017514;28;20396;-84
2022/04/03 01:00:06;;;;;;;48.38;19.33;;;-3.20;99.90;;;;;;5034237;28;20619;-84
2022/04/03 01:02:32;;;;;;;46.40;20.63;;;-3.10;99.90;;;;;;5034291;28;20041;-84
2022/04/03 01:04:58;;;;;;;47.95;19.73;;;-3.10;99.90;;;;;;5017291;28;20705;-84
2022/04/03 01:07:24;;;;;;;48.17;19.30;;;-3.00;99.90;;;;;;5034164;28;20025;-84
2022/04/03 01:09:50;;;;;;;48.05;19.92;;;-3.00;99.90;;;;;;5034117;28;20033;-84
2022/04/03 01:12:16;;;;;;;51.08;20.60;;;-3.00;99.90;;;;;;5033890;28;20021;-84
2022/04/03 01:14:48;;;;;;;41.05;19.52;;;-3.00;99.90;;;;;;5020790;28;20040;-84
2022/04/03 01:17:14;;;;;;;48.30;20.58;;;-3.00;99.90;;;;;;5020656;28;20032;-84
2022/04/03 01:19:40;;;;;;;45.40;21.17;;;-3.00;99.90;;;;;;5020372;28;20033;-84
2022/04/03 01:22:07;;;;;;;47.88;20.23;;;-3.00;99.90;;;;;;5037065;28;20046;-84
2022/04/03 01:24:33;;;;;;;45.90;20.27;;;-3.00;99.90;;;;;;5037133;28;20037;-84
2022/04/03 01:27:00;;;;;;;48.65;19.98;;;-3.00;99.90;;;;;;5054625;28;20031;-84
2022/04/03 01:29:26;;;;;;;41.15;17.77;;;-3.00;99.90;;;;;;5037749;28;20120;-84
2022/04/03 01:31:53;;;;;;;45.13;19.02;;;-3.10;99.90;;;;;;5036994;28;20078;-84
2022/04/03 01:34:20;;;;;;;45.00;18.95;;;-3.00;99.90;;;;;;5020595;28;20483;-84
2022/04/03 01:36:48;;;;;;;44.30;17.95;;;-3.00;99.90;;;;;;5037077;28;20044;-84
2022/04/03 01:39:14;;;;;;;40.45;17.70;;;-3.00;99.90;;;;;;5037267;28;20034;-84
2022/04/03 01:41:44;;;;;;;43.42;18.05;;;-2.90;99.90;;;;;;5020261;28;20040;-84
2022/04/03 01:44:10;;;;;;;36.38;18.20;;;-3.00;99.90;;;;;;5020124;28;20048;-84
2022/04/03 01:46:38;;;;;;;42.85;18.67;;;-3.00;99.90;;;;;;5036843;28;20029;-84
2022/04/03 01:49:05;;;;;;;42.10;18.48;;;-3.00;99.90;;;;;;5020023;28;20032;-83
2022/04/03 01:51:32;;;;;;;41.75;19.05;;;-2.90;99.90;;;;;;5020136;28;20043;-84
2022/04/03 01:53:59;;;;;;;43.08;18.60;;;-2.90;99.90;;;;;;5037085;28;20087;-84
2022/04/03 01:56:25;;;;;;;40.08;16.75;;;-2.90;99.90;;;;;;5019941;28;20039;-84
2022/04/03 01:58:50;;;;;;;33.85;16.90;;;-2.90;99.90;;;;;;5036362;28;20120;-84
2022/04/03 02:01:16;;;;;;;33.70;15.77;;;-2.90;99.90;;;;;;5019487;28;20083;-84
2022/04/03 02:03:57;;;;;;;34.50;16.95;;;-2.90;99.90;;;;;;5019413;28;20059;-84
2022/04/03 02:06:23;;;;;;;35.70;15.55;;;-2.80;99.90;;;;;;5036281;28;20036;-84
2022/04/03 02:08:49;;;;;;;29.23;14.95;;;-2.80;99.90;;;;;;5035949;28;20036;-84
2022/04/03 02:11:15;;;;;;;32.45;15.57;;;-2.80;99.90;;;;;;5054350;28;20017;-84
2022/04/03 02:13:41;;;;;;;32.33;15.30;;;-2.80;99.90;;;;;;5020063;28;20115;-84
2022/04/03 02:16:09;;;;;;;34.15;15.05;;;-2.80;99.90;;;;;;5019887;28;20033;-84
2022/04/03 02:22:23;;;;;;;37.63;15.35;;;-2.80;99.90;;;;;;5053850;28;20044;-84
2022/04/03 02:24:48;;;;;;;28.25;13.52;;;-2.80;99.90;;;;;;5019025;28;20198;-84
2022/04/03 02:27:14;;;;;;;36.70;14.85;;;-2.90;99.90;;;;;;5019144;28;20036;-84
2022/04/03 02:29:40;;;;;;;31.15;14.05;;;-2.90;99.90;;;;;;5053969;28;20025;-84
2022/04/03 02:32:06;;;;;;;31.08;14.30;;;-3.00;99.90;;;;;;5019323;28;20063;-84
2022/04/03 02:34:32;;;;;;;35.17;14.60;;;-3.00;99.90;;;;;;5035859;28;20037;-83
2022/04/03 02:36:57;;;;;;;31.55;13.52;;;-2.90;99.90;;;;;;5019326;28;20044;-84
2022/04/03 02:39:24;;;;;;;26.40;13.50;;;-2.90;99.90;;;;;;5019405;28;20072;-84
2022/04/03 02:41:49;;;;;;;27.50;14.30;;;-2.80;99.90;;;;;;5019262;28;20037;-84
2022/04/03 02:44:16;;;;;;;29.70;14.23;;;-2.80;99.90;;;;;;5019095;28;20116;-84
2022/04/03 02:50:29;;;;;;;24.20;12.25;;;-2.70;99.90;;;;;;5054288;28;20090;-84
2022/04/03 02:53:10;;;;;;;27.25;13.30;;;-2.70;99.90;;;;;;5035557;28;20029;-84
2022/04/03 02:55:36;;;;;;;25.98;12.50;;;-2.60;99.90;;;;;;5035331;28;20029;-84
2022/04/03 02:58:02;;;;;;;27.73;13.98;;;-2.60;99.90;;;;;;5035528;28;20036;-84
2022/04/03 03:00:28;;;;;;;29.75;13.82;;;-2.50;99.90;;;;;;5034975;28;20029;-84
2022/04/03 03:02:54;;;;;;;26.45;13.27;;;-2.60;99.90;;;;;;5035279;28;20060;-84
2022/04/03 03:05:20;;;;;;;27.48;13.15;;;-2.50;99.90;;;;;;5018629;28;20743;-84
2022/04/03 03:07:46;;;;;;;29.15;14.77;;;-2.50;99.90;;;;;;5018606;28;20094;-84
2022/04/03 03:10:17;;;;;;;26.92;12.15;;;-2.50;99.90;;;;;;5018364;28;20127;-84
2022/04/03 03:12:44;;;;;;;25.80;12.82;;;-2.40;99.90;;;;;;5035302;28;20646;-84
2022/04/03 03:15:11;;;;;;;27.77;13.65;;;-2.40;99.90;;;;;;5019247;28;20796;-84
2022/04/03 03:17:37;;;;;;;26.90;12.50;;;-2.50;99.90;;;;;;5034939;28;20040;-84
2022/04/03 03:20:08;;;;;;;23.83;11.30;;;-2.50;99.90;;;;;;5035579;28;20050;-84
2022/04/03 03:22:35;;;;;;;27.40;12.15;;;-2.50;99.90;;;;;;5034913;28;20025;-84
2022/04/03 03:25:02;;;;;;;23.33;12.07;;;-2.50;99.90;;;;;;5018754;28;20029;-84
2022/04/03 03:27:28;;;;;;;24.73;11.30;;;-2.50;99.90;;;;;;5034596;28;20029;-84
2022/04/03 03:29:53;;;;;;;26.10;11.60;;;-2.50;99.90;;;;;;5018779;28;20385;-84
2022/04/03 03:32:20;;;;;;;24.95;11.68;;;-2.60;99.90;;;;;;5034908;28;20039;-84
2022/04/03 03:34:45;;;;;;;23.60;11.93;;;-2.70;99.90;;;;;;5018334;28;20037;-84
2022/04/03 03:37:11;;;;;;;29.50;12.75;;;-2.70;99.90;;;;;;5033944;28;20029;-84
2022/04/03 03:39:37;;;;;;;22.48;11.65;;;-2.80;99.90;;;;;;5034651;28;20048;-84
2022/04/03 03:42:04;;;;;;;26.80;12.13;;;-2.80;99.90;;;;;;5017881;28;20029;-84
2022/04/03 03:44:29;;;;;;;22.52;11.00;;;-2.70;99.90;;;;;;5035247;28;20029;-84
2022/04/03 03:46:55;;;;;;;23.98;11.23;;;-2.70;99.90;;;;;;5017984;28;20029;-84
2022/04/03 03:49:21;;;;;;;86.10;43.42;;;-2.70;99.90;;;;;;5034753;28;20365;-84
2022/04/03 03:51:47;;;;;;;26.45;12.05;;;-2.60;99.90;;;;;;5018608;28;20024;-84
2022/04/03 03:54:13;;;;;;;20.48;10.93;;;-2.60;99.90;;;;;;5018015;28;20457;-84
2022/04/03 03:56:39;;;;;;;19.35;11.65;;;-2.60;99.90;;;;;;5034499;28;20045;-84
2022/04/03 03:59:08;;;;;;;20.55;11.70;;;-2.60;99.90;;;;;;5017811;28;20059;-84
2022/04/03 04:01:34;;;;;;;22.42;11.05;;;-2.60;99.90;;;;;;5018002;28;20438;-84
2022/04/03 04:04:01;;;;;;;24.27;10.57;;;-2.70;99.90;;;;;;5018188;28;20392;-84
2022/04/03 04:06:26;;;;;;;20.10;9.88;;;-2.70;99.90;;;;;;5034432;28;20080;-84
2022/04/03 04:08:52;;;;;;;19.80;10.25;;;-2.60;99.90;;;;;;5017581;28;20058;-84
2022/04/03 04:11:18;;;;;;;21.08;10.05;;;-2.70;99.90;;;;;;5034299;28;20043;-84
2022/04/03 04:13:44;;;;;;;20.42;10.02;;;-2.70;99.90;;;;;;5018253;28;20416;-84
2022/04/03 04:16:10;;;;;;;23.75;11.10;;;-2.70;99.90;;;;;;5017898;28;20029;-84
2022/04/03 04:18:36;;;;;;;20.85;10.45;;;-2.70;99.90;;;;;;5033206;28;20037;-84
2022/04/03 04:21:06;;;;;;;19.90;9.40;;;-2.70;99.90;;;;;;5017786;28;20136;-84
2022/04/03 04:23:32;;;;;;;19.75;10.32;;;-2.70;99.90;;;;;;5034122;28;20052;-84
2022/04/03 04:25:58;;;;;;;21.25;10.77;;;-2.70;99.90;;;;;;5032993;28;20431;-84
2022/04/03 04:28:24;;;;;;;21.13;9.57;;;-2.70;99.90;;;;;;5033277;28;20025;-84
2022/04/03 04:30:50;;;;;;;25.33;11.13;;;-2.80;99.90;;;;;;5016754;28;20029;-84
2022/04/03 04:33:16;;;;;;;24.05;10.45;;;-2.80;99.90;;;;;;5029022;28;20028;-84
2022/04/03 04:35:42;;;;;;;26.88;10.57;;;-2.80;99.90;;;;;;5033133;28;20468;-84
2022/04/03 04:38:08;;;;;;;19.67;10.15;;;-2.90;99.90;;;;;;5034203;28;20037;-84
2022/04/03 04:40:33;;;;;;;20.55;10.50;;;-2.90;99.90;;;;;;5051972;28;20033;-83
2022/04/03 04:42:59;;;;;;;25.98;11.68;;;-2.90;99.90;;;;;;5051644;28;20033;-84
2022/04/03 04:45:25;;;;;;;23.83;11.25;;;-3.00;99.90;;;;;;5033663;28;20063;-84
2022/04/03 04:47:59;;;;;;;18.27;10.40;;;-3.00;99.90;;;;;;5035032;28;20040;-84
2022/04/03 04:50:26;;;;;;;26.55;12.50;;;-3.10;99.90;;;;;;5038160;28;20033;-84
2022/04/03 04:52:52;;;;;;;33.00;14.32;;;-3.10;99.90;;;;;;5054515;28;20556;-84
2022/04/03 04:55:19;;;;;;;26.02;12.68;;;-3.10;99.90;;;;;;5037342;28;20033;-84
2022/04/03 04:57:56;;;;;;;23.77;12.95;;;-3.10;99.90;;;;;;5037518;28;20715;-84
2022/04/03 05:00:28;;;;;;;20.88;10.93;;;-3.10;99.90;;;;;;5037594;28;20022;-83
2022/04/03 05:02:55;;;;;;;25.75;11.43;;;-3.20;99.90;;;;;;5037689;28;20029;-82
2022/04/03 05:05:24;;;;;;;23.60;11.35;;;-3.10;99.90;;;;;;5021645;28;20432;-82
2022/04/03 05:07:58;;;;;;;27.00;12.38;;;-3.20;99.90;;;;;;5018945;28;20025;-83
2022/04/03 05:10:25;;;;;;;29.52;12.85;;;-3.10;99.90;;;;;;5035613;28;20033;-83
2022/04/03 05:12:53;;;;;;;26.80;13.38;;;-3.10;99.90;;;;;;5036739;28;20025;-82
2022/04/03 05:15:19;;;;;;;31.60;17.15;;;-3.20;99.90;;;;;;5036964;28;20032;-82
2022/04/03 05:17:45;;;;;;;39.45;18.88;;;-3.20;99.90;;;;;;5020181;28;20507;-82
2022/04/03 05:20:13;;;;;;;50.58;22.05;;;-3.20;99.90;;;;;;5036840;28;20431;-82
2022/04/03 05:22:40;;;;;;;49.30;22.02;;;-3.20;99.90;;;;;;5004243;28;20033;-82
2022/04/03 05:25:11;;;;;;;56.97;24.45;;;-3.20;99.90;;;;;;5054889;28;20075;-82
2022/04/03 05:27:40;;;;;;;51.90;19.75;;;-3.30;99.90;;;;;;5020850;28;20082;-82
2022/04/03 05:30:53;;;;;;;35.67;15.52;;;-3.20;99.90;;;;;;5055036;28;20029;-82
2022/04/03 05:33:19;;;;;;;21.95;11.13;;;-3.20;99.90;;;;;;5054903;28;20111;-82
2022/04/03 05:35:45;;;;;;;19.88;11.00;;;-3.20;99.90;;;;;;5036176;28;20512;-82
2022/04/03 05:38:11;;;;;;;29.30;11.80;;;-3.20;99.90;;;;;;5032321;28;20033;-82
2022/04/03 05:40:36;;;;;;;32.45;14.95;;;-3.20;99.90;;;;;;5020001;28;20106;-82
2022/04/03 05:43:02;;;;;;;34.58;16.15;;;-3.10;99.90;;;;;;5020190;28;20407;-82
2022/04/03 05:45:28;;;;;;;27.65;12.98;;;-3.10;99.90;;;;;;5020439;28;20033;-82
2022/04/03 05:47:54;;;;;;;26.13;13.02;;;-3.10;99.90;;;;;;5020200;28;20384;-82
2022/04/03 05:50:20;;;;;;;22.67;11.05;;;-3.10;99.90;;;;;;5020375;28;20033;-82
2022/04/03 05:52:50;;;;;;;24.80;12.25;;;-3.00;99.90;;;;;;5020304;28;20111;-82
2022/04/03 05:55:18;;;;;;;20.63;11.17;;;-3.00;99.90;;;;;;5020178;28;20047;-83
2022/04/03 05:57:46;;;;;;;20.42;10.35;;;-2.90;99.90;;;;;;5036434;28;20685;-82
2022/04/03 06:00:13;;;;;;;23.52;11.88;;;-2.90;99.90;;;;;;5019572;28;20535;-83
2022/04/03 06:02:45;;;;;;;20.50;10.85;;;-2.80;99.90;;;;;;5019926;28;20533;-83
2022/04/03 06:05:11;;;;;;;24.35;11.63;;;-2.50;99.90;;;;;;5036348;28;20040;-83
2022/04/03 06:07:37;;;;;;;24.67;12.30;;;-2.80;99.90;;;;;;5036216;28;20112;-83
2022/04/03 06:10:03;;;;;;;28.50;11.55;;;-2.70;99.90;;;;;;5019611;28;20488;-83
2022/04/03 06:12:29;;;;;;;25.25;12.00;;;-2.70;99.90;;;;;;5019908;28;20037;-83
2022/04/03 06:14:55;;;;;;;26.05;11.60;;;-2.70;99.90;;;;;;5036090;28;20025;-83
2022/04/03 06:17:21;;;;;;;22.38;10.35;;;-2.60;99.90;;;;;;5053205;28;20079;-83
2022/04/03 06:19:48;;;;;;;20.00;10.18;;;-2.60;99.90;;;;;;5035818;28;20107;-82
2022/04/03 06:22:14;;;;;;;21.73;10.23;;;-2.50;99.90;;;;;;5019308;28;20087;-82
2022/04/03 06:24:40;;;;;;;22.15;10.57;;;-2.40;99.90;;;;;;5035757;28;20025;-83
2022/04/03 06:27:05;;;;;;;18.40;9.35;;;-2.30;99.90;;;;;;5053557;28;20017;-83
2022/04/03 06:29:31;;;;;;;24.50;9.98;;;-2.20;99.90;;;;;;5015957;28;20827;-82
2022/04/03 06:31:57;;;;;;;22.48;10.65;;;-2.10;99.90;;;;;;5018286;28;20029;-82
2022/04/03 06:34:23;;;;;;;18.77;10.35;;;-2.00;99.90;;;;;;5018917;28;20033;-83
2022/04/03 06:36:49;;;;;;;21.73;11.48;;;-1.90;99.90;;;;;;5018646;28;20119;-82
2022/04/03 06:39:15;;;;;;;23.60;11.77;;;-1.80;99.90;;;;;;5018919;28;20119;-82
2022/04/03 06:41:41;;;;;;;24.08;10.63;;;-1.80;99.90;;;;;;5035340;28;20033;-82
2022/04/03 06:44:06;;;;;;;18.17;10.57;;;-1.70;99.90;;;;;;5018365;28;20033;-82
2022/04/03 06:46:32;;;;;;;18.30;8.50;;;-1.70;99.90;;;;;;5018314;28;20028;-82
2022/04/03 06:48:58;;;;;;;17.98;8.98;;;-1.60;99.90;;;;;;5014437;28;20036;-82
2022/04/03 06:51:24;;;;;;;19.67;9.93;;;-1.60;99.90;;;;;;5053396;28;20476;-82
2022/04/03 06:53:51;;;;;;;18.67;10.32;;;-1.50;99.90;;;;;;5018642;28;20116;-82
2022/04/03 06:56:19;;;;;;;18.30;9.00;;;-1.40;99.90;;;;;;5018499;28;20119;-82
2022/04/03 06:58:45;;;;;;;16.58;8.95;;;-1.40;99.90;;;;;;5017904;28;20124;-82
2022/04/03 07:01:11;;;;;;;16.63;8.63;;;-1.30;99.90;;;;;;5053053;28;20057;-82
2022/04/03 07:03:37;;;;;;;18.15;8.57;;;-1.20;99.90;;;;;;5034728;28;20041;-82
2022/04/03 07:06:04;;;;;;;18.85;8.73;;;-1.10;99.90;;;;;;5035050;28;20044;-82
2022/04/03 07:08:31;;;;;;;15.02;7.57;;;-1.10;99.90;;;;;;5068189;28;20025;-82
2022/04/03 07:10:58;;;;;;;14.65;8.30;;;-1.10;99.90;;;;;;5017909;28;20100;-81
2022/04/03 07:13:24;;;;;;;14.27;8.73;;;-1.10;99.90;;;;;;5035084;28;20123;-81
2022/04/03 07:15:50;;;;;;;19.42;8.73;;;-1.10;99.90;;;;;;5018772;28;20033;-82
2022/04/03 07:18:19;;;;;;;17.17;8.68;;;-1.00;99.90;;;;;;5034648;28;20756;-81
2022/04/03 07:20:48;;;;;;;22.23;10.43;;;-1.00;99.90;;;;;;5034737;28;20037;-82
2022/04/03 07:23:14;;;;;;;16.90;8.20;;;-0.90;99.90;;;;;;5034197;28;20029;-81
2022/04/03 07:25:40;;;;;;;17.08;9.40;;;-0.80;99.90;;;;;;5030661;28;20027;-81
2022/04/03 07:28:06;;;;;;;25.20;9.43;;;-0.80;99.90;;;;;;5050718;28;20062;-81
2022/04/03 07:30:32;;;;;;;22.10;10.27;;;-0.70;99.90;;;;;;5052699;28;20053;-82
2022/04/03 07:32:58;;;;;;;24.55;10.82;;;-0.60;99.90;;;;;;5035419;28;20131;-82
2022/04/03 07:35:25;;;;;;;18.85;9.75;;;-0.50;99.90;;;;;;5034360;28;20100;-82
2022/04/03 07:37:51;;;;;;;17.23;9.32;;;-0.40;99.90;;;;;;5018255;28;20041;-82
2022/04/03 07:40:17;;;;;;;14.35;9.15;;;-0.30;99.90;;;;;;5017834;28;20033;-82
2022/04/03 07:42:42;;;;;;;18.05;9.73;;;-0.30;99.90;;;;;;5035000;28;20047;-82
2022/04/03 07:45:11;;;;;;;16.30;8.35;;;-0.20;99.90;;;;;;5068172;28;20678;-82
2022/04/03 07:47:52;;;;;;;18.27;8.48;;;-0.30;99.90;;;;;;5051243;28;20472;-82
2022/04/03 07:50:19;;;;;;;12.18;7.88;;;-0.20;99.90;;;;;;5030813;28;20020;-82
2022/04/03 07:52:48;;;;;;;13.30;7.78;;;-0.20;99.90;;;;;;5018439;28;20487;-82
2022/04/03 07:55:14;;;;;;;14.25;7.88;;;-0.10;99.90;;;;;;5034696;28;20025;-82
2022/04/03 07:57:40;;;;;;;13.35;7.18;;;-0.10;99.90;;;;;;5034495;28;20131;-82
2022/04/03 08:00:11;;;;;;;14.75;7.03;;;0.00;99.90;;;;;;5052321;28;20476;-81
2022/04/03 08:02:37;;;;;;;16.42;7.47;;;-0.10;99.90;;;;;;5034285;28;20045;-82
2022/04/03 08:05:04;;;;;;;17.23;8.65;;;-0.10;99.90;;;;;;5017723;28;20361;-82
2022/04/03 08:07:43;;;;;;;14.05;7.50;;;0.00;99.90;;;;;;5017715;28;20381;-82
2022/04/03 08:10:10;;;;;;;19.00;8.85;;;0.10;99.90;;;;;;5018254;28;20237;-82
2022/04/03 08:12:36;;;;;;;13.48;7.22;;;0.20;99.90;;;;;;5034369;28;20071;-81
2022/04/03 08:15:04;;;;;;;33.20;7.63;;;0.30;99.90;;;;;;5017860;28;20553;-81
2022/04/03 08:17:30;;;;;;;21.33;7.53;;;0.20;99.90;;;;;;5033753;28;20055;-82
2022/04/03 08:19:56;;;;;;;9.77;5.57;;;0.10;99.90;;;;;;5017700;28;20051;-82
2022/04/03 08:22:22;;;;;;;12.27;7.53;;;0.20;99.90;;;;;;5018293;28;20033;-82
2022/04/03 08:24:49;;;;;;;10.82;6.32;;;0.30;99.90;;;;;;5020869;28;20615;-82
2022/04/03 08:27:15;;;;;;;16.38;6.85;;;0.40;99.90;;;;;;5036214;28;20079;-81
2022/04/03 08:29:41;;;;;;;18.73;6.70;;;0.50;99.90;;;;;;5054639;28;20112;-82
2022/04/03 08:32:07;;;;;;;12.85;6.75;;;0.60;99.90;;;;;;5037949;28;20116;-81
2022/04/03 08:34:33;;;;;;;12.73;6.25;;;0.80;99.90;;;;;;5021327;28;20037;-81
2022/04/03 08:36:59;;;;;;;14.77;6.28;;;1.10;99.90;;;;;;5021188;28;20037;-82
2022/04/03 08:39:25;;;;;;;11.77;7.10;;;1.20;99.90;;;;;;5021830;28;20472;-81
2022/04/03 08:41:52;;;;;;;17.15;7.30;;;1.10;99.90;;;;;;5021564;28;20040;-82
2022/04/03 08:44:21;;;;;;;18.42;7.95;;;1.30;99.90;;;;;;5038454;28;20064;-82
2022/04/03 08:46:48;;;;;;;13.88;7.57;;;1.30;99.90;;;;;;5020642;28;20017;-82
2022/04/03 08:49:19;;;;;;;14.13;5.72;;;1.50;99.90;;;;;;5037359;28;20032;-82
2022/04/03 08:51:46;;;;;;;9.48;5.30;;;1.90;99.90;;;;;;5070422;28;20033;-82
2022/04/03 08:54:14;;;;;;;12.65;6.70;;;2.70;99.90;;;;;;5015637;28;20040;-82
2022/04/03 08:56:42;;;;;;;9.88;5.72;;;3.10;99.90;;;;;;5021145;28;20047;-82
2022/04/03 08:59:09;;;;;;;18.73;9.63;;;3.70;99.90;;;;;;5021063;28;20043;-82
2022/04/03 09:01:35;;;;;;;16.48;10.30;;;5.40;99.90;;;;;;5037648;28;20484;-81
2022/04/03 09:04:00;;;;;;;47.45;19.80;;;6.20;99.90;;;;;;5020708;28;20090;-81
2022/04/03 09:06:27;;;;;;;21.90;14.07;;;5.20;99.90;;;;;;5037601;28;20025;-80
2022/04/03 09:08:53;;;;;;;9.07;5.95;;;5.20;99.90;;;;;;5037378;28;20032;-81
2022/04/03 09:11:19;;;;;;;13.52;7.50;;;5.20;99.90;;;;;;5037615;28;20032;-81
2022/04/03 09:13:45;;;;;;;12.13;5.43;;;5.50;99.90;;;;;;5070377;28;20032;-81
2022/04/03 09:16:12;;;;;;;8.50;4.30;;;5.20;99.90;;;;;;5020531;28;20041;-81
2022/04/03 09:18:49;;;;;;;10.10;4.25;;;4.20;99.90;;;;;;5020064;28;20037;-82
2022/04/03 09:21:22;;;;;;;9.02;5.15;;;3.90;99.90;;;;;;5020268;28;20025;-82
2022/04/03 09:24:06;;;;;;;10.35;5.32;;;3.60;99.90;;;;;;5036696;28;20147;-82
2022/04/03 09:27:02;;;;;;;7.63;4.38;;;3.40;99.90;;;;;;5020650;28;20112;-82
2022/04/03 09:29:28;;;;;;;10.65;4.70;;;3.70;99.90;;;;;;5019207;28;20624;-82
2022/04/03 09:32:01;;;;;;;6.40;3.88;;;3.70;99.90;;;;;;5036686;28;20119;-82
2022/04/03 09:34:29;;;;;;;12.73;4.63;;;5.20;99.90;;;;;;5019500;28;20064;-82
2022/04/03 09:37:05;;;;;;;15.73;4.93;;;6.40;99.90;;;;;;5019868;28;20436;-82
2022/04/03 09:39:32;;;;;;;25.98;10.35;;;7.00;99.90;;;;;;5053089;28;20041;-83
2022/04/03 09:42:02;;;;;;;7.97;5.00;;;7.30;99.90;;;;;;5036461;28;20032;-83
2022/04/03 09:44:35;;;;;;;7.18;3.72;;;6.80;99.90;;;;;;5036032;28;20033;-82
2022/04/03 09:47:26;;;;;;;6.53;4.50;;;5.20;99.90;;;;;;5036759;28;20069;-81
2022/04/03 09:49:59;;;;;;;13.02;5.25;;;3.30;99.90;;;;;;5020566;28;20029;-81
2022/04/03 09:52:51;;;;;;;9.52;4.72;;;2.60;99.90;;;;;;5037083;28;20033;-81
2022/04/03 09:55:19;;;;;;;8.38;5.18;;;2.30;99.90;;;;;;5050534;28;20029;-81
2022/04/03 09:57:47;;;;;;;16.67;7.78;;;2.20;99.90;;;;;;5036742;28;20036;-81
2022/04/03 10:00:26;;;;;;;10.98;5.22;;;2.20;99.90;;;;;;5036497;28;20035;-81
2022/04/03 10:03:01;;;;;;;12.32;6.70;;;2.30;99.90;;;;;;5020073;28;20040;-82
2022/04/03 10:05:31;;;;;;;10.88;5.78;;;2.30;99.90;;;;;;5036098;28;20488;-82
2022/04/03 10:08:01;;;;;;;13.43;6.45;;;2.20;99.90;;;;;;5019952;28;20391;-81
2022/04/03 10:10:28;;;;;;;11.85;7.15;;;2.40;99.90;;;;;;5054535;28;20742;-82
2022/04/03 10:12:58;;;;;;;14.55;7.43;;;2.60;99.90;;;;;;5019826;28;20064;-82
2022/04/03 10:15:24;;;;;;;13.52;6.20;;;2.50;99.90;;;;;;5048692;28;20699;-81
2022/04/03 10:17:50;;;;;;;16.20;6.22;;;2.90;99.90;;;;;;5019308;28;20033;-82
2022/04/03 10:20:16;;;;;;;15.52;13.55;;;3.60;99.90;;;;;;5019226;28;20124;-82
2022/04/03 10:22:49;;;;;;;15.85;10.32;;;5.10;99.90;;;;;;5019750;28;20033;-81
2022/04/03 10:25:19;;;;;;;8.82;5.40;;;6.80;99.90;;;;;;5019537;28;20064;-82
2022/04/03 10:27:47;;;;;;;8.35;3.97;;;7.80;99.90;;;;;;5018903;28;20433;-82
2022/04/03 10:30:16;;;;;;;7.00;4.00;;;9.00;99.90;;;;;;5053690;28;20070;-82
2022/04/03 10:32:59;;;;;;;7.85;3.88;;;8.90;99.90;;;;;;5035274;28;20040;-82
2022/04/03 10:35:25;;;;;;;8.80;3.97;;;8.90;98.10;;;;;;5019098;28;20056;-82
2022/04/03 10:38:11;;;;;;;8.20;4.30;;;8.40;97.50;;;;;;5019132;28;20488;-82
2022/04/03 10:40:36;;;;;;;6.85;4.28;;;8.30;96.60;;;;;;5018474;28;20080;-83
2022/04/03 10:43:06;;;;;;;6.85;3.92;;;8.50;96.70;;;;;;5035460;28;20747;-83
2022/04/03 10:45:46;;;;;;;5.25;4.03;;;8.30;93.50;;;;;;5068626;28;20033;-82
2022/04/03 10:48:21;;;;;;;6.35;4.53;;;8.20;95.50;;;;;;5019292;28;20024;-82
2022/04/03 10:51:06;;;;;;;7.07;4.50;;;9.10;97.10;;;;;;5019617;28;20473;-82
2022/04/03 10:53:34;;;;;;;5.05;3.65;;;8.90;92.50;;;;;;5019266;28;20110;-82
2022/04/03 10:56:07;;;;;;;6.43;3.85;;;7.60;92.30;;;;;;5035699;28;20025;-83
2022/04/03 10:58:42;;;;;;;8.50;4.60;;;5.50;94.80;;;;;;5019498;28;20036;-82
2022/04/03 11:01:30;;;;;;;7.28;3.95;;;3.90;99.40;;;;;;5014626;28;20032;-82
2022/04/03 11:04:02;;;;;;;6.40;4.38;;;3.00;99.90;;;;;;5034739;28;20064;-82
2022/04/03 11:06:32;;;;;;;7.20;4.50;;;2.70;99.90;;;;;;5035530;28;20021;-82
2022/04/03 11:09:09;;;;;;;8.27;4.50;;;2.70;99.90;;;;;;5018566;28;20025;-82
2022/04/03 11:11:44;;;;;;;6.22;3.85;;;2.80;99.90;;;;;;5019504;28;20033;-82
2022/04/03 11:14:30;;;;;;;9.90;4.55;;;3.10;99.90;;;;;;5035967;28;20147;-82
2022/04/03 11:16:56;;;;;;;10.20;4.97;;;3.30;99.90;;;;;;5018947;28;20079;-82
2022/04/03 11:19:35;;;;;;;6.35;4.28;;;3.70;99.90;;;;;;5018986;28;20067;-83
2022/04/03 11:22:02;;;;;;;6.03;3.58;;;4.40;99.90;;;;;;5033874;28;20043;-83
2022/04/03 11:24:37;;;;;;;7.70;4.38;;;5.50;99.90;;;;;;5050895;28;20091;-82
2022/04/03 11:27:04;;;;;;;7.88;3.85;;;5.50;99.90;;;;;;5034128;28;20029;-82
2022/04/03 11:29:30;;;;;;;7.93;4.13;;;5.20;99.90;;;;;;5018279;28;20040;-82
2022/04/03 11:31:57;;;;;;;7.20;4.22;;;4.40;99.90;;;;;;5052285;28;20025;-82
2022/04/03 11:34:30;;;;;;;7.00;4.15;;;3.70;98.60;;;;;;5053003;28;20116;-83
2022/04/03 11:36:58;;;;;;;15.00;5.90;;;3.60;99.90;;;;;;5034283;28;20115;-83
2022/04/03 11:39:31;;;;;;;7.10;4.65;;;3.60;99.90;;;;;;5034640;28;20068;-83
2022/04/03 11:42:02;;;;;;;8.75;5.32;;;4.00;99.50;;;;;;5018513;28;20131;-83
2022/04/03 11:44:29;;;;;;;10.32;4.13;;;4.40;98.00;;;;;;5034134;28;20032;-83
2022/04/03 11:46:55;;;;;;;9.32;3.30;;;4.40;97.60;;;;;;5017469;28;20119;-83
2022/04/03 11:49:25;;;;;;;7.38;3.40;;;4.20;96.00;;;;;;5052303;28;20104;-83
2022/04/03 11:51:58;;;;;;;5.35;3.53;;;4.00;97.60;;;;;;5034289;28;20060;-83
2022/04/03 11:54:25;;;;;;;5.68;3.50;;;4.30;97.20;;;;;;5018104;28;20727;-83
2022/04/03 11:56:58;;;;;;;9.43;3.63;;;4.90;97.70;;;;;;5017182;28;20531;-83
2022/04/03 11:59:24;;;;;;;9.50;6.25;;;6.30;95.50;;;;;;5051376;28;20488;-83
2022/04/03 12:01:50;;;;;;;9.05;4.32;;;8.00;91.40;;;;;;5014270;28;20060;-83
2022/04/03 12:04:17;;;;;;;5.40;3.63;;;9.10;88.90;;;;;;5050555;28;20059;-83
2022/04/03 12:06:45;;;;;;;8.55;4.60;;;8.30;84.20;;;;;;5034760;28;20755;-83
2022/04/03 12:09:16;;;;;;;6.32;3.60;;;7.50;89.10;;;;;;5034578;28;20029;-83
2022/04/03 12:11:49;;;;;;;11.05;5.68;;;7.00;88.10;;;;;;5051193;28;20050;-82
2022/04/03 12:14:23;;;;;;;12.40;6.93;;;6.60;90.30;;;;;;5034268;28;20033;-83
2022/04/03 12:16:58;;;;;;;19.35;10.52;;;6.70;90.00;;;;;;5030239;28;20033;-82
2022/04/03 12:19:24;;;;;;;7.68;3.90;;;6.70;90.00;;;;;;5050919;28;20037;-82
2022/04/03 12:21:56;;;;;;;16.30;9.63;;;6.60;90.50;;;;;;5034134;28;20024;-82
2022/04/03 12:24:23;;;;;;;4.28;3.25;;;6.10;92.50;;;;;;5034699;28;20086;-82
2022/04/03 12:27:01;;;;;;;10.13;6.25;;;6.20;90.00;;;;;;5034808;28;20550;-82
2022/04/03 12:29:31;;;;;;;16.38;13.00;;;6.60;91.10;;;;;;5051174;28;20056;-82
2022/04/03 12:31:57;;;;;;;6.35;3.55;;;7.70;83.80;;;;;;5017758;28;20039;-82
2022/04/03 12:34:23;;;;;;;9.38;4.55;;;8.90;76.60;;;;;;5017731;28;20551;-83
2022/04/03 12:36:51;;;;;;;8.82;5.38;;;9.70;73.50;;;;;;5050777;28;20051;-83
2022/04/03 12:39:34;;;;;;;7.93;4.05;;;9.40;69.90;;;;;;5017629;28;20033;-82
2022/04/03 12:42:28;;;;;;;13.90;7.43;;;9.80;69.10;;;;;;5034243;28;20480;-82
2022/04/03 12:44:55;;;;;;;10.20;6.05;;;9.50;77.10;;;;;;5033785;28;20037;-82
2022/04/03 12:47:24;;;;;;;16.50;8.85;;;8.50;80.60;;;;;;5017328;28;20036;-82
2022/04/03 12:50:06;;;;;;;12.15;5.30;;;7.50;82.10;;;;;;5034438;28;20101;-82
2022/04/03 12:52:54;;;;;;;11.45;5.18;;;6.30;86.10;;;;;;5033730;28;20028;-83